Time;durP1;ratioP1;P1;durP2;ratioP2;P2;SDS_P1;SDS_P2;PMS_P1;PMS_P2;Temp;Humidity;BMP_temperature;BMP_pressure;BME280_temperature;BME280_humidity;BME280_pressure;Samples;Min_cycle;Max_cycle;Signal;HPM_P1;HPM_P2
2022/11/19 00:01:02;;;;;;;1.30;1.20;;;20.30;98.80;;;;;;4990534;28;20207;-74
2022/11/19 00:03:32;;;;;;;1.48;1.38;;;20.30;99.10;;;;;;4992557;28;20198;-73
2022/11/19 00:06:03;;;;;;;1.58;1.48;;;20.20;99.10;;;;;;4995661;28;20651;-73
2022/11/19 00:08:29;;;;;;;1.30;1.20;;;20.20;98.70;;;;;;4999468;28;20200;-73
2022/11/19 00:11:04;;;;;;;1.27;1.17;;;20.20;99.20;;;;;;4999219;28;20663;-73
2022/11/19 00:13:31;;;;;;;1.30;1.20;;;20.20;99.20;;;;;;4990492;28;20604;-73
2022/11/19 00:16:02;;;;;;;1.52;1.40;;;20.20;98.80;;;;;;4990494;28;20232;-73
2022/11/19 00:18:29;;;;;;;1.75;1.58;;;20.20;98.90;;;;;;4988921;28;20747;-73
2022/11/19 00:21:01;;;;;;;1.23;1.10;;;20.20;99.00;;;;;;4994239;28;20258;-74
2022/11/19 00:23:28;;;;;;;1.95;1.10;;;20.20;98.80;;;;;;4993275;28;20201;-74
2022/11/19 00:25:54;;;;;;;1.45;1.35;;;20.20;98.60;;;;;;5000664;28;20656;-73
2022/11/19 00:28:21;;;;;;;2.35;1.30;;;20.20;98.20;;;;;;4998668;28;20646;-73
2022/11/19 00:30:51;;;;;;;1.73;1.50;;;20.20;97.90;;;;;;4984978;28;20724;-74
2022/11/19 00:33:18;;;;;;;1.58;1.20;;;20.20;98.10;;;;;;4987533;28;20205;-73
2022/11/19 00:35:45;;;;;;;4.40;1.52;;;20.20;98.50;;;;;;4992382;28;20212;-73
2022/11/19 00:38:11;;;;;;;6.88;1.63;;;20.10;98.60;;;;;;4995533;28;20343;-73
2022/11/19 00:40:38;;;;;;;4.07;2.17;;;20.10;98.80;;;;;;5003144;28;20604;-73
2022/11/19 00:45:51;;;;;;;1.67;1.50;;;20.00;98.30;;;;;;4985455;28;20235;-73
2022/11/19 00:48:17;;;;;;;1.30;1.20;;;19.90;98.90;;;;;;4989037;28;20193;-73
2022/11/19 00:50:44;;;;;;;1.60;1.50;;;19.90;98.40;;;;;;4993754;28;20572;-73
2022/11/19 00:53:11;;;;;;;2.05;1.30;;;19.90;97.60;;;;;;4995733;28;20663;-72
2022/11/19 00:55:38;;;;;;;1.65;1.55;;;19.90;98.70;;;;;;4989512;28;20208;-74
2022/11/19 00:58:05;;;;;;;2.10;1.90;;;19.90;98.60;;;;;;4996942;28;20668;-73
2022/11/19 01:00:31;;;;;;;1.30;1.20;;;20.00;98.50;;;;;;4995859;28;20590;-72
2022/11/19 01:02:59;;;;;;;1.30;1.13;;;19.90;98.60;;;;;;4993259;28;20208;-73
2022/11/19 01:05:26;;;;;;;1.17;1.05;;;19.90;98.60;;;;;;4989450;28;20224;-73
2022/11/19 01:07:53;;;;;;;1.40;1.30;;;19.80;98.90;;;;;;4989458;28;20193;-73
2022/11/19 01:10:20;;;;;;;1.30;1.20;;;19.80;98.60;;;;;;4996881;28;20563;-73
2022/11/19 01:15:31;;;;;;;1.10;1.00;;;19.80;98.40;;;;;;4995454;28;20600;-72
2022/11/19 01:17:59;;;;;;;1.58;1.48;;;19.80;98.10;;;;;;4991394;28;20223;-73
2022/11/19 01:20:26;;;;;;;1.52;1.42;;;19.70;98.00;;;;;;4994421;28;20194;-72
2022/11/19 01:22:54;;;;;;;1.88;1.75;;;19.70;98.20;;;;;;4990974;28;20567;-73
2022/11/19 01:25:21;;;;;;;1.40;1.20;;;19.80;98.00;;;;;;4996263;28;20199;-73
2022/11/19 01:27:47;;;;;;;1.85;1.75;;;19.80;98.30;;;;;;4988383;28;20223;-73
2022/11/19 01:30:15;;;;;;;2.28;1.60;;;19.80;97.30;;;;;;4993856;28;20226;-73
2022/11/19 01:32:41;;;;;;;1.83;1.73;;;19.70;98.30;;;;;;4989953;28;20580;-72
2022/11/19 01:35:10;;;;;;;4.50;1.50;;;19.70;98.80;;;;;;4995154;28;20201;-73
2022/11/19 01:37:36;;;;;;;1.70;1.60;;;19.70;98.70;;;;;;4997149;28;20205;-72
2022/11/19 01:40:06;;;;;;;1.98;1.80;;;19.60;98.50;;;;;;4995547;28;20224;-73
2022/11/19 01:42:49;;;;;;;1.45;1.35;;;19.60;98.50;;;;;;4995522;28;20197;-73
2022/11/19 01:45:30;;;;;;;1.45;1.35;;;19.60;98.80;;;;;;5000665;28;20199;-72
2022/11/19 01:47:59;;;;;;;1.60;1.50;;;19.60;99.00;;;;;;4989135;28;20646;-72
2022/11/19 01:50:30;;;;;;;2.30;2.10;;;19.60;98.70;;;;;;4989648;28;20212;-72
2022/11/19 01:52:57;;;;;;;1.30;1.20;;;19.60;98.60;;;;;;4985790;28;20197;-72
2022/11/19 01:55:25;;;;;;;1.60;1.50;;;19.60;99.10;;;;;;4995488;28;20653;-72
2022/11/19 01:57:56;;;;;;;1.50;1.13;;;19.60;98.90;;;;;;4998548;28;20274;-72
2022/11/19 02:00:23;;;;;;;1.60;1.50;;;19.60;99.30;;;;;;4983676;28;20968;-72
2022/11/19 02:02:50;;;;;;;1.55;1.45;;;19.60;99.50;;;;;;5005934;28;20201;-72
2022/11/19 02:05:18;;;;;;;1.67;1.25;;;19.60;98.90;;;;;;4997123;28;20453;-72
2022/11/19 02:07:53;;;;;;;1.42;1.30;;;19.60;98.90;;;;;;4989473;28;20216;-72
2022/11/19 02:10:26;;;;;;;1.60;1.50;;;19.60;98.90;;;;;;4996316;28;20189;-72
2022/11/19 02:13:01;;;;;;;1.45;1.35;;;19.60;98.10;;;;;;4992339;28;20223;-73
2022/11/19 02:15:38;;;;;;;1.42;1.20;;;19.60;98.90;;;;;;4995621;28;20232;-73
2022/11/19 02:18:32;;;;;;;1.50;1.40;;;19.60;99.20;;;;;;4991022;28;20215;-73
2022/11/19 02:21:08;;;;;;;1.55;1.45;;;19.60;99.20;;;;;;4980635;28;20213;-72
2022/11/19 02:23:57;;;;;;;1.80;1.60;;;19.50;99.30;;;;;;4990164;28;20201;-73
2022/11/19 02:26:50;;;;;;;1.60;1.50;;;19.50;99.40;;;;;;4988271;28;20201;-72
2022/11/19 02:29:27;;;;;;;1.50;1.40;;;19.50;99.30;;;;;;4990875;28;20193;-72
2022/11/19 02:32:00;;;;;;;1.40;1.30;;;19.50;99.30;;;;;;4986553;28;20201;-72
2022/11/19 02:34:32;;;;;;;2.05;1.73;;;19.50;99.40;;;;;;4992727;28;20256;-73
2022/11/19 02:37:04;;;;;;;2.28;2.08;;;19.50;99.00;;;;;;4983013;28;20205;-72
2022/11/19 02:39:38;;;;;;;2.30;1.50;;;19.50;98.70;;;;;;4999192;28;20224;-72
2022/11/19 02:42:11;;;;;;;2.60;1.98;;;19.50;99.60;;;;;;4997836;28;20685;-72
2022/11/19 02:45:01;;;;;;;1.60;1.50;;;19.50;98.60;;;;;;4993855;28;20203;-72
2022/11/19 02:47:35;;;;;;;1.60;1.40;;;19.50;98.50;;;;;;4986367;28;20205;-73
2022/11/19 02:50:07;;;;;;;2.70;1.55;;;19.50;99.40;;;;;;4992547;28;20207;-72
2022/11/19 02:52:36;;;;;;;1.63;1.52;;;19.40;98.90;;;;;;4985835;28;20703;-72
2022/11/19 02:55:03;;;;;;;1.60;1.50;;;19.40;98.80;;;;;;4989940;28;20271;-72
2022/11/19 02:57:30;;;;;;;1.90;1.80;;;19.40;98.70;;;;;;4992035;28;20232;-72
2022/11/19 03:05:37;;;;;;;1.70;1.60;;;19.40;99.00;;;;;;4989758;28;20592;-72
2022/11/19 03:08:04;;;;;;;1.52;1.40;;;19.40;99.10;;;;;;4991883;28;20197;-72
2022/11/19 03:10:38;;;;;;;1.60;1.50;;;19.40;99.20;;;;;;4995354;28;20644;-72
2022/11/19 03:18:48;;;;;;;2.13;1.92;;;19.40;99.40;;;;;;4998420;28;20283;-73
2022/11/19 03:21:21;;;;;;;1.80;1.70;;;19.40;99.70;;;;;;4991463;28;20694;-74
2022/11/19 03:23:53;;;;;;;1.55;1.45;;;19.30;99.30;;;;;;4992953;28;20213;-74
2022/11/19 03:26:26;;;;;;;1.80;1.70;;;19.40;99.70;;;;;;4997029;28;20197;-74
2022/11/19 03:28:55;;;;;;;1.60;1.50;;;19.40;99.10;;;;;;4992089;28;20192;-74
2022/11/19 03:31:24;;;;;;;1.65;1.55;;;19.40;99.60;;;;;;4998771;28;20197;-74
2022/11/19 03:33:56;;;;;;;1.70;1.60;;;19.40;99.00;;;;;;4998973;28;20200;-74
2022/11/19 03:36:29;;;;;;;2.35;2.15;;;19.40;99.30;;;;;;4989254;28;20678;-74
2022/11/19 03:39:01;;;;;;;1.90;1.80;;;19.40;99.10;;;;;;4993690;28;20217;-74
2022/11/19 03:41:30;;;;;;;1.70;1.60;;;19.30;98.40;;;;;;4991077;28;20664;-73
2022/11/19 03:44:03;;;;;;;1.60;1.50;;;19.30;99.50;;;;;;4994520;28;20207;-74
2022/11/19 03:46:33;;;;;;;2.10;1.90;;;19.30;99.10;;;;;;5000594;28;20296;-74
2022/11/19 03:49:04;;;;;;;2.05;1.85;;;19.30;99.20;;;;;;4996159;28;20197;-74
2022/11/19 03:51:38;;;;;;;1.98;1.77;;;19.30;99.60;;;;;;4988574;28;20197;-71
2022/11/19 03:54:05;;;;;;;2.22;2.00;;;19.30;98.50;;;;;;4989651;28;20205;-72
2022/11/19 03:56:37;;;;;;;2.08;1.98;;;19.40;99.30;;;;;;4995400;28;20204;-70
2022/11/19 03:59:05;;;;;;;1.50;1.40;;;19.30;99.00;;;;;;4984414;28;20770;-70
2022/11/19 04:01:32;;;;;;;2.03;1.92;;;19.30;99.30;;;;;;4995329;28;20572;-71
2022/11/19 04:06:44;;;;;;;2.05;1.85;;;19.30;99.50;;;;;;5000793;28;20682;-70
2022/11/19 04:09:11;;;;;;;2.25;2.05;;;19.30;99.70;;;;;;5002333;28;20648;-71
2022/11/19 04:11:38;;;;;;;2.03;1.90;;;19.30;99.30;;;;;;4997705;28;20197;-70
2022/11/19 04:14:05;;;;;;;2.15;1.95;;;19.30;98.90;;;;;;4999165;28;20287;-70
2022/11/19 04:16:31;;;;;;;2.22;2.00;;;19.30;99.00;;;;;;4993033;28;20229;-71
2022/11/19 04:18:58;;;;;;;2.28;2.08;;;19.30;98.60;;;;;;4980276;28;20720;-70
2022/11/19 04:21:26;;;;;;;2.13;1.95;;;19.30;99.10;;;;;;4991065;28;20205;-71
2022/11/19 04:23:53;;;;;;;2.40;2.20;;;19.30;99.10;;;;;;4991141;28;20213;-71
2022/11/19 04:26:20;;;;;;;2.40;2.20;;;19.30;99.30;;;;;;5006595;28;20223;-70
2022/11/19 04:28:46;;;;;;;1.98;1.88;;;19.30;98.90;;;;;;4989183;28;20235;-70
2022/11/19 04:31:13;;;;;;;1.98;1.88;;;19.30;99.40;;;;;;5005459;28;20200;-71
2022/11/19 04:33:40;;;;;;;1.77;1.67;;;19.30;99.40;;;;;;4989398;28;20224;-70
2022/11/19 04:36:07;;;;;;;1.90;1.80;;;19.30;98.50;;;;;;4991755;28;20683;-70
2022/11/19 04:38:35;;;;;;;3.20;2.90;;;19.30;98.90;;;;;;4996498;28;20201;-70
2022/11/19 04:41:02;;;;;;;2.33;2.13;;;19.30;98.80;;;;;;5003562;28;20197;-71
2022/11/19 04:43:29;;;;;;;2.33;2.13;;;19.30;98.90;;;;;;4994838;28;20650;-70
2022/11/19 04:45:56;;;;;;;2.60;2.40;;;19.30;98.90;;;;;;4995315;28;20205;-71
2022/11/19 04:48:22;;;;;;;2.35;2.00;;;19.30;98.60;;;;;;5000049;28;20198;-70
2022/11/19 04:50:49;;;;;;;2.15;2.05;;;19.40;99.50;;;;;;4989723;28;20201;-70
2022/11/19 04:53:16;;;;;;;2.40;2.20;;;19.40;99.20;;;;;;4992683;28;20683;-70
2022/11/19 04:55:44;;;;;;;2.25;2.05;;;19.50;98.50;;;;;;5002429;28;20660;-70
2022/11/19 04:58:11;;;;;;;2.28;1.85;;;19.50;99.10;;;;;;4998146;28;20201;-70
2022/11/19 05:00:38;;;;;;;3.05;2.42;;;19.50;99.00;;;;;;4992735;28;20216;-71
2022/11/19 05:03:04;;;;;;;2.20;2.10;;;19.50;98.30;;;;;;4994432;28;20203;-72
2022/11/19 05:05:31;;;;;;;2.13;2.03;;;19.50;98.70;;;;;;4989208;28;20197;-70
2022/11/19 05:07:58;;;;;;;2.35;2.15;;;19.50;98.10;;;;;;5004733;28;20196;-70
2022/11/19 05:10:24;;;;;;;2.67;2.47;;;19.40;98.30;;;;;;4991658;28;20213;-71
2022/11/19 05:12:52;;;;;;;2.40;2.22;;;19.40;98.10;;;;;;4998421;28;20209;-70
2022/11/19 05:15:19;;;;;;;2.50;2.30;;;19.40;98.30;;;;;;4994559;28;20587;-71
2022/11/19 05:17:46;;;;;;;2.45;2.25;;;19.40;99.00;;;;;;4997933;28;20682;-71
2022/11/19 05:20:13;;;;;;;2.75;2.55;;;19.30;98.30;;;;;;4999761;28;20338;-70
2022/11/19 05:22:40;;;;;;;2.70;2.50;;;19.30;97.50;;;;;;4991490;28;20209;-70
2022/11/19 05:25:07;;;;;;;2.25;2.05;;;19.30;99.00;;;;;;4998502;28;20205;-70
2022/11/19 05:27:34;;;;;;;2.40;2.20;;;19.30;98.80;;;;;;4990846;28;20549;-71
2022/11/19 05:30:03;;;;;;;2.50;2.20;;;19.40;99.00;;;;;;4990423;28;20205;-72
2022/11/19 05:32:30;;;;;;;2.50;2.30;;;19.50;98.60;;;;;;4998923;28;20201;-71
2022/11/19 05:34:57;;;;;;;2.55;2.08;;;19.60;98.20;;;;;;4993030;28;20201;-71
2022/11/19 05:37:23;;;;;;;2.10;2.00;;;19.70;98.50;;;;;;4991053;28;20592;-70
2022/11/19 05:39:50;;;;;;;2.53;2.33;;;19.80;98.30;;;;;;4994018;28;20706;-69
2022/11/19 05:42:17;;;;;;;2.60;2.40;;;19.90;98.10;;;;;;4998517;28;20201;-70
2022/11/19 05:44:43;;;;;;;2.35;2.15;;;19.90;97.70;;;;;;4990214;28;20207;-70
2022/11/19 05:47:11;;;;;;;2.13;2.03;;;20.00;97.50;;;;;;4989891;28;20220;-70
2022/11/19 05:49:38;;;;;;;2.55;2.35;;;20.00;97.60;;;;;;4988583;28;20588;-71
2022/11/19 05:52:05;;;;;;;2.25;2.05;;;20.00;97.00;;;;;;4989318;28;20204;-70
2022/11/19 05:54:32;;;;;;;1.83;1.73;;;20.10;97.20;;;;;;4996416;28;20207;-70
2022/11/19 05:56:58;;;;;;;1.75;1.65;;;20.10;97.30;;;;;;5003275;28;20619;-70
2022/11/19 05:59:25;;;;;;;2.50;2.30;;;20.10;97.10;;;;;;4990162;28;20628;-71
2022/11/19 06:01:52;;;;;;;2.45;2.25;;;20.10;96.60;;;;;;4988962;28;20201;-70
2022/11/19 06:04:20;;;;;;;2.33;2.13;;;20.10;97.10;;;;;;4985014;28;20208;-70
2022/11/19 06:06:47;;;;;;;2.20;2.10;;;20.10;97.20;;;;;;4992797;28;20209;-70
2022/11/19 06:09:13;;;;;;;2.40;2.20;;;20.10;97.10;;;;;;4990827;28;20208;-70
2022/11/19 06:11:50;;;;;;;2.40;2.20;;;20.10;96.60;;;;;;4993347;28;20216;-70
2022/11/19 06:14:17;;;;;;;2.33;2.13;;;20.10;96.60;;;;;;4994811;28;20236;-71
2022/11/19 06:16:44;;;;;;;2.40;2.20;;;20.10;96.60;;;;;;4992848;28;20225;-70
2022/11/19 06:19:11;;;;;;;2.40;2.20;;;20.10;96.30;;;;;;4987640;28;20201;-72
2022/11/19 06:21:39;;;;;;;2.40;2.20;;;20.10;96.40;;;;;;4988850;28;20227;-70
2022/11/19 06:24:06;;;;;;;2.40;2.22;;;20.10;96.40;;;;;;5001437;28;20201;-70
2022/11/19 06:26:33;;;;;;;2.25;2.00;;;20.10;96.90;;;;;;4987147;28;20201;-70
2022/11/19 06:29:00;;;;;;;3.03;2.75;;;20.00;96.80;;;;;;5000931;28;20209;-70
2022/11/19 06:31:27;;;;;;;2.55;2.35;;;20.00;95.70;;;;;;4987357;28;20201;-70
2022/11/19 06:33:53;;;;;;;2.08;1.88;;;20.00;96.20;;;;;;4993035;28;20659;-73
2022/11/19 06:36:20;;;;;;;2.28;2.08;;;20.00;96.80;;;;;;4985243;28;20201;-70
2022/11/19 06:38:48;;;;;;;2.58;2.38;;;20.00;96.30;;;;;;4991984;28;20197;-72
2022/11/19 06:41:15;;;;;;;2.85;2.58;;;20.00;96.00;;;;;;4997365;28;20219;-70
2022/11/19 06:43:42;;;;;;;2.50;2.30;;;20.00;96.40;;;;;;4990930;28;20267;-71
2022/11/19 06:46:10;;;;;;;2.47;2.28;;;20.00;96.30;;;;;;4989002;28;20197;-70
2022/11/19 06:48:36;;;;;;;2.40;2.20;;;20.00;96.60;;;;;;4990843;28;20209;-70
2022/11/19 06:51:04;;;;;;;1.85;1.75;;;20.00;95.90;;;;;;4993050;28;20683;-70
2022/11/19 06:53:31;;;;;;;2.17;1.98;;;20.00;96.20;;;;;;4992469;28;20197;-70
2022/11/19 06:56:01;;;;;;;2.47;2.28;;;20.00;96.30;;;;;;4998340;28;20203;-70
2022/11/19 06:58:28;;;;;;;2.60;2.40;;;20.00;95.70;;;;;;4992767;28;20204;-71
2022/11/19 07:00:55;;;;;;;2.38;2.15;;;20.00;95.90;;;;;;4995792;28;20216;-70
2022/11/19 07:03:23;;;;;;;2.33;2.13;;;20.00;96.00;;;;;;4987249;28;20193;-71
2022/11/19 07:05:50;;;;;;;2.15;2.00;;;20.10;96.40;;;;;;4988789;28;20223;-70
2022/11/19 07:08:17;;;;;;;3.10;2.67;;;20.10;96.40;;;;;;4997780;28;20206;-71
2022/11/19 07:10:44;;;;;;;2.35;2.15;;;20.10;96.50;;;;;;4989599;28;20283;-71
2022/11/19 07:13:12;;;;;;;2.20;2.00;;;20.10;96.30;;;;;;4986318;28;20197;-70
2022/11/19 07:15:39;;;;;;;2.58;2.22;;;20.10;96.10;;;;;;4999008;28;20236;-70
2022/11/19 07:18:06;;;;;;;2.22;2.03;;;20.10;96.40;;;;;;4981824;28;20213;-71
2022/11/19 07:20:32;;;;;;;2.20;2.00;;;20.10;96.40;;;;;;4988341;28;20588;-72
2022/11/19 07:22:59;;;;;;;2.45;2.25;;;20.10;96.20;;;;;;4997778;28;20559;-70
2022/11/19 07:25:26;;;;;;;2.40;2.20;;;20.10;96.10;;;;;;4990388;28;20204;-70
2022/11/19 07:27:53;;;;;;;2.42;2.22;;;20.20;96.20;;;;;;4986135;28;20456;-71
2022/11/19 07:30:21;;;;;;;2.77;2.57;;;20.20;96.10;;;;;;4993765;28;20193;-70
2022/11/19 07:32:48;;;;;;;2.28;2.08;;;20.20;95.90;;;;;;4993214;28;20459;-70
2022/11/19 07:35:15;;;;;;;2.42;2.22;;;20.20;95.70;;;;;;4988002;28;20205;-71
2022/11/19 07:37:42;;;;;;;2.20;2.00;;;20.20;95.70;;;;;;4991212;28;20205;-71
2022/11/19 07:40:10;;;;;;;2.45;2.28;;;20.20;96.20;;;;;;4999408;28;20706;-71
2022/11/19 07:42:52;;;;;;;2.50;2.30;;;20.20;95.70;;;;;;4991763;28;20207;-71
2022/11/19 07:45:21;;;;;;;1.80;1.70;;;20.20;95.80;;;;;;4991699;28;20674;-70
2022/11/19 07:47:48;;;;;;;2.60;2.40;;;20.20;95.80;;;;;;4992929;28;20579;-70
2022/11/19 07:50:15;;;;;;;2.80;2.60;;;20.20;95.90;;;;;;4986454;28;20204;-71
2022/11/19 07:52:42;;;;;;;2.88;2.67;;;20.20;95.70;;;;;;4984993;28;20572;-71
2022/11/19 07:55:09;;;;;;;2.42;2.22;;;20.20;95.60;;;;;;4993044;28;20205;-72
2022/11/19 07:57:36;;;;;;;2.60;2.40;;;20.20;96.00;;;;;;4995408;28;20573;-70
2022/11/19 08:00:04;;;;;;;1.92;1.83;;;20.20;95.50;;;;;;4994209;28;20221;-72
2022/11/19 08:02:32;;;;;;;2.15;1.95;;;20.20;95.60;;;;;;4997976;28;20213;-72
2022/11/19 08:04:59;;;;;;;2.72;2.30;;;20.20;96.30;;;;;;4989588;28;20209;-72
2022/11/19 08:07:26;;;;;;;2.10;2.00;;;20.20;95.40;;;;;;4999194;28;20207;-71
2022/11/19 08:09:53;;;;;;;2.00;1.90;;;20.20;95.70;;;;;;4991738;28;20575;-70
2022/11/19 08:12:19;;;;;;;2.20;2.10;;;20.20;95.70;;;;;;4998218;28;20655;-71
2022/11/19 08:14:46;;;;;;;2.28;2.13;;;20.20;95.40;;;;;;4999714;28;20212;-71
2022/11/19 08:19:59;;;;;;;2.15;1.95;;;20.20;95.60;;;;;;4984980;28;20248;-71
2022/11/19 08:22:26;;;;;;;2.50;2.30;;;20.20;95.30;;;;;;4990173;28;20664;-71
2022/11/19 08:24:53;;;;;;;2.67;2.47;;;20.20;95.10;;;;;;4987896;28;20207;-71
2022/11/19 08:27:19;;;;;;;2.55;2.35;;;20.20;95.10;;;;;;4994618;28;20219;-71
2022/11/19 08:29:46;;;;;;;2.10;2.00;;;20.20;95.30;;;;;;4995963;28;20201;-71
2022/11/19 08:32:13;;;;;;;2.10;2.00;;;20.20;95.50;;;;;;4991889;28;20215;-70
2022/11/19 08:34:39;;;;;;;2.00;1.80;;;20.20;95.40;;;;;;4987533;28;20211;-71
2022/11/19 08:37:10;;;;;;;2.30;2.00;;;20.10;95.30;;;;;;4994156;28;20548;-71
2022/11/19 08:39:36;;;;;;;2.35;2.15;;;20.20;95.30;;;;;;4997661;28;20208;-71
2022/11/19 08:44:48;;;;;;;1.83;1.73;;;20.20;95.20;;;;;;4993060;28;20223;-72
2022/11/19 08:47:14;;;;;;;2.67;2.42;;;20.20;95.10;;;;;;4989604;28;20209;-72
2022/11/19 08:49:41;;;;;;;2.40;2.20;;;20.20;95.30;;;;;;4990894;28;20205;-70
2022/11/19 08:52:09;;;;;;;2.28;2.10;;;20.20;95.30;;;;;;4997974;28;20671;-70
2022/11/19 08:54:36;;;;;;;1.95;1.85;;;20.20;94.90;;;;;;5001587;28;20208;-70
2022/11/19 08:57:03;;;;;;;2.05;1.85;;;20.20;95.00;;;;;;4991871;28;20204;-72
2022/11/19 08:59:30;;;;;;;2.50;2.30;;;20.20;95.00;;;;;;4992372;28;20303;-71
2022/11/19 09:01:56;;;;;;;2.10;1.95;;;20.30;95.30;;;;;;4992750;28;20225;-71
2022/11/19 09:04:23;;;;;;;1.95;1.85;;;20.30;95.40;;;;;;4987121;28;20215;-70
2022/11/19 09:06:50;;;;;;;2.08;1.98;;;20.30;95.30;;;;;;5002958;28;20201;-70
2022/11/19 09:09:18;;;;;;;2.10;2.00;;;20.30;95.40;;;;;;4995641;28;20664;-71
2022/11/19 09:11:45;;;;;;;2.15;1.95;;;20.30;95.20;;;;;;4989072;28;20193;-71
2022/11/19 09:14:12;;;;;;;1.95;1.80;;;20.30;95.30;;;;;;4989493;28;20201;-70
2022/11/19 09:16:38;;;;;;;2.10;1.90;;;20.30;95.10;;;;;;4990465;28;20233;-70
2022/11/19 09:19:05;;;;;;;2.00;1.90;;;20.30;94.50;;;;;;4991286;28;20205;-69
2022/11/19 09:21:32;;;;;;;2.20;2.00;;;20.30;94.70;;;;;;4990941;28;20221;-68
2022/11/19 09:23:59;;;;;;;2.03;1.90;;;20.30;94.30;;;;;;4991245;28;20204;-69
2022/11/19 09:26:27;;;;;;;2.30;2.10;;;20.30;94.60;;;;;;4988636;28;20491;-71
2022/11/19 09:28:53;;;;;;;2.28;2.05;;;20.30;94.30;;;;;;4985757;28;20991;-70
2022/11/19 09:31:20;;;;;;;5.50;2.45;;;20.30;94.40;;;;;;4984504;28;20204;-70
2022/11/19 09:33:49;;;;;;;2.05;1.95;;;20.40;94.10;;;;;;4985631;28;20205;-70
2022/11/19 09:36:17;;;;;;;2.97;2.77;;;20.40;94.50;;;;;;4991491;28;20276;-74
2022/11/19 09:38:44;;;;;;;2.38;2.10;;;20.40;95.00;;;;;;4992978;28;20827;-76
2022/11/19 09:41:38;;;;;;;4.17;2.60;;;20.40;95.00;;;;;;4992425;28;20221;-70
2022/11/19 09:44:21;;;;;;;2.37;2.17;;;20.40;94.40;;;;;;4979948;28;20460;-71
2022/11/19 09:46:56;;;;;;;2.37;2.17;;;20.40;94.80;;;;;;4996403;28;20456;-70
2022/11/19 09:49:27;;;;;;;4.90;2.47;;;20.50;93.60;;;;;;4989672;28;20482;-70
2022/11/19 09:51:58;;;;;;;2.63;2.43;;;20.50;93.60;;;;;;4980216;28;20473;-70
2022/11/19 09:54:26;;;;;;;2.50;2.30;;;20.60;93.70;;;;;;4992619;28;20927;-71
2022/11/19 09:56:55;;;;;;;2.57;1.90;;;20.70;93.60;;;;;;4982956;28;20455;-70
2022/11/19 09:59:27;;;;;;;2.17;2.00;;;20.80;93.40;;;;;;4995567;28;20460;-71
2022/11/19 10:01:54;;;;;;;2.20;2.00;;;20.80;93.10;;;;;;4992161;28;21015;-71
2022/11/19 10:04:23;;;;;;;2.53;2.07;;;20.80;92.80;;;;;;4992436;28;20472;-70
2022/11/19 10:07:03;;;;;;;2.23;2.10;;;20.90;92.40;;;;;;4991169;28;20467;-71
2022/11/19 10:09:55;;;;;;;2.03;1.80;;;20.90;92.10;;;;;;4990761;28;20464;-72
2022/11/19 10:12:42;;;;;;;2.40;2.20;;;20.90;92.10;;;;;;4987705;28;20464;-70
2022/11/19 10:15:23;;;;;;;1.90;1.80;;;20.80;91.80;;;;;;4985022;28;20989;-70
2022/11/19 10:18:04;;;;;;;2.40;1.67;;;20.80;92.10;;;;;;4999939;28;20462;-70
2022/11/19 10:20:48;;;;;;;1.90;1.80;;;20.80;91.70;;;;;;4987946;28;20460;-71
2022/11/19 10:23:18;;;;;;;2.57;2.30;;;20.80;91.70;;;;;;4988834;28;20875;-71
2022/11/19 10:25:46;;;;;;;2.23;2.03;;;20.80;91.50;;;;;;4990522;28;20464;-72
2022/11/19 10:28:16;;;;;;;3.63;1.67;;;20.70;91.40;;;;;;4992486;28;20590;-72
2022/11/19 10:30:49;;;;;;;2.13;1.93;;;20.70;91.40;;;;;;4991328;28;20452;-72
2022/11/19 10:33:21;;;;;;;4.63;2.17;;;20.70;91.80;;;;;;4998133;28;20451;-72
2022/11/19 10:35:50;;;;;;;2.20;2.00;;;20.70;91.90;;;;;;4992917;28;20839;-73
2022/11/19 10:38:22;;;;;;;2.67;1.67;;;20.60;91.50;;;;;;4985962;28;20944;-71
2022/11/19 10:40:54;;;;;;;2.10;1.90;;;20.70;92.00;;;;;;4984420;28;20582;-72
2022/11/19 10:43:27;;;;;;;2.37;2.17;;;20.60;91.60;;;;;;4980760;28;20979;-72
2022/11/19 10:45:57;;;;;;;2.47;2.27;;;20.60;91.80;;;;;;4981488;28;20537;-73
2022/11/19 10:48:27;;;;;;;3.77;2.07;;;20.60;92.30;;;;;;4981784;28;20461;-72
2022/11/19 10:50:56;;;;;;;2.20;2.00;;;20.60;92.40;;;;;;4981920;28;20467;-73
2022/11/19 10:53:27;;;;;;;2.03;1.83;;;20.60;92.20;;;;;;4980010;28;22184;-71
2022/11/19 10:55:57;;;;;;;2.10;1.90;;;20.50;92.30;;;;;;4981322;28;20444;-73
2022/11/19 10:58:28;;;;;;;2.40;2.20;;;20.50;92.10;;;;;;4976201;28;20194;-72
2022/11/19 11:00:57;;;;;;;3.33;2.10;;;20.50;92.40;;;;;;4982425;28;20518;-71
2022/11/19 11:03:27;;;;;;;2.50;1.95;;;20.50;93.10;;;;;;4987025;28;20470;-72
2022/11/19 11:05:56;;;;;;;3.73;2.20;;;20.50;92.60;;;;;;4981985;28;20208;-71
2022/11/19 11:08:23;;;;;;;2.17;1.97;;;20.40;92.20;;;;;;4998752;28;20823;-71
2022/11/19 11:10:51;;;;;;;2.57;2.07;;;20.40;92.70;;;;;;4990979;28;20939;-70
2022/11/19 11:16:13;;;;;;;4.33;2.20;;;20.40;91.60;;;;;;4988263;28;21005;-72
2022/11/19 11:18:41;;;;;;;3.85;1.90;;;20.40;91.80;;;;;;4989101;28;20469;-79
2022/11/19 11:21:12;;;;;;;5.05;2.30;;;20.40;92.20;;;;;;4988760;28;20220;-78
2022/11/19 11:23:49;;;;;;;3.92;1.92;;;20.40;92.30;;;;;;4995415;28;20223;-79
2022/11/19 11:26:21;;;;;;;2.93;1.97;;;20.40;92.30;;;;;;4991207;28;20293;-78
2022/11/19 11:28:57;;;;;;;2.00;1.90;;;20.40;93.10;;;;;;4997832;28;20475;-78
2022/11/19 11:31:35;;;;;;;2.22;2.03;;;20.30;93.40;;;;;;4999720;28;20188;-77
2022/11/19 11:34:03;;;;;;;4.30;3.60;;;20.30;92.40;;;;;;4982828;28;20521;-79
2022/11/19 11:36:34;;;;;;;5.47;3.70;;;20.30;79.10;;;;;;4992147;28;20703;-77
2022/11/19 11:39:02;;;;;;;4.32;4.00;;;20.30;72.00;;;;;;4989708;28;20197;-77
2022/11/19 11:41:41;;;;;;;5.13;3.90;;;20.20;69.50;;;;;;4995189;28;20240;-80
2022/11/19 11:44:19;;;;;;;3.58;3.28;;;20.20;68.50;;;;;;4988519;28;20959;-79
2022/11/19 11:46:48;;;;;;;4.22;3.28;;;20.20;69.10;;;;;;4992793;28;20571;-79
2022/11/19 11:49:30;;;;;;;4.60;3.42;;;20.20;71.00;;;;;;4992324;28;20564;-79
2022/11/19 11:52:16;;;;;;;2.92;2.63;;;20.20;73.70;;;;;;4989709;28;20197;-80
2022/11/19 11:54:57;;;;;;;4.55;2.38;;;20.30;76.20;;;;;;4990970;28;20197;-79
2022/11/19 11:57:26;;;;;;;3.83;2.70;;;20.30;77.80;;;;;;4992038;28;20193;-79
2022/11/19 11:59:54;;;;;;;5.30;2.90;;;20.30;77.30;;;;;;5001635;28;20211;-80
2022/11/19 12:02:28;;;;;;;3.95;2.35;;;20.30;78.90;;;;;;4995303;28;20217;-79
2022/11/19 12:04:57;;;;;;;2.33;2.10;;;20.40;80.20;;;;;;4991996;28;20193;-80
2022/11/19 12:07:45;;;;;;;2.53;2.33;;;20.40;81.20;;;;;;4991085;28;20258;-77
2022/11/19 12:10:24;;;;;;;2.83;2.30;;;20.30;81.90;;;;;;4985279;28;20907;-80
2022/11/19 12:13:02;;;;;;;2.60;2.40;;;20.30;82.80;;;;;;4987591;28;20452;-79
2022/11/19 12:15:40;;;;;;;2.40;1.98;;;20.30;83.20;;;;;;4994847;28;20233;-80
2022/11/19 12:18:17;;;;;;;3.25;2.25;;;20.30;84.20;;;;;;4988844;28;20204;-77
2022/11/19 12:20:51;;;;;;;2.83;2.22;;;20.30;84.60;;;;;;4992898;28;20200;-79
2022/11/19 12:23:37;;;;;;;2.33;2.13;;;20.40;84.80;;;;;;5003488;28;20188;-80
2022/11/19 12:26:13;;;;;;;3.05;2.85;;;20.40;85.20;;;;;;5001461;28;20201;-77
2022/11/19 12:28:54;;;;;;;1.95;1.75;;;20.40;85.90;;;;;;4994612;28;20203;-79
2022/11/19 12:31:39;;;;;;;2.90;1.90;;;20.30;86.20;;;;;;4993258;28;20200;-78
2022/11/19 12:34:24;;;;;;;2.23;1.87;;;20.40;86.70;;;;;;4985747;28;20783;-80
2022/11/19 12:36:57;;;;;;;3.35;1.80;;;20.30;86.20;;;;;;5003836;28;20452;-80
2022/11/19 12:39:36;;;;;;;2.60;2.40;;;20.40;87.80;;;;;;4993452;28;20182;-80
2022/11/19 12:42:30;;;;;;;2.00;1.70;;;20.40;87.60;;;;;;4993510;28;20223;-81
2022/11/19 12:45:05;;;;;;;2.10;1.90;;;20.40;88.40;;;;;;5001747;28;20192;-81
2022/11/19 12:48:00;;;;;;;1.90;1.73;;;20.40;88.40;;;;;;4997988;28;20738;-80
2022/11/19 12:50:31;;;;;;;1.75;1.63;;;20.40;88.70;;;;;;4991425;28;20703;-80
2022/11/19 12:53:16;;;;;;;1.80;1.70;;;20.30;89.20;;;;;;4987361;28;20656;-79
2022/11/19 12:55:53;;;;;;;2.50;1.85;;;20.30;89.60;;;;;;4994792;28;20208;-81
2022/11/19 12:58:30;;;;;;;3.60;2.05;;;20.30;89.40;;;;;;4989909;28;20197;-81
2022/11/19 13:01:02;;;;;;;1.77;1.58;;;20.30;90.00;;;;;;4999846;28;20218;-80
2022/11/19 13:03:45;;;;;;;3.17;1.75;;;20.30;90.20;;;;;;4992892;28;20197;-79
2022/11/19 13:06:18;;;;;;;2.22;2.03;;;20.30;90.20;;;;;;5006647;28;20671;-79
2022/11/19 13:08:49;;;;;;;2.70;1.95;;;20.30;90.70;;;;;;5000394;28;20216;-78
2022/11/19 13:11:23;;;;;;;1.60;1.50;;;20.30;90.80;;;;;;4996587;28;20189;-81
2022/11/19 13:13:55;;;;;;;1.65;1.55;;;20.30;90.80;;;;;;4986244;28;20193;-80
2022/11/19 13:16:25;;;;;;;1.60;1.50;;;20.30;91.00;;;;;;4996305;28;20228;-81
2022/11/19 13:18:57;;;;;;;2.65;1.52;;;20.30;91.10;;;;;;4987160;28;20201;-81
2022/11/19 13:21:43;;;;;;;2.30;1.75;;;20.30;91.20;;;;;;4993529;28;20292;-81
2022/11/19 13:24:21;;;;;;;2.10;1.90;;;20.30;91.00;;;;;;4993009;28;20201;-80
2022/11/19 13:26:48;;;;;;;1.70;1.45;;;20.30;91.40;;;;;;4987231;28;20920;-81
2022/11/19 13:29:31;;;;;;;2.05;1.65;;;20.20;91.50;;;;;;4992201;28;20201;-75
2022/11/19 13:32:02;;;;;;;1.90;1.80;;;20.20;91.70;;;;;;5001463;28;20197;-75